sensor_id;sensor_type;location;lat;lon;timestamp;P1;durP1;ratioP1;P2;durP2;ratioP2
59127;SDS011;44912;52.754;5.994;2023-03-01T00:00:39;20.27;;;13.48;;
59127;SDS011;44912;52.754;5.994;2023-03-01T00:03:05;26.27;;;15.82;;
59127;SDS011;44912;52.754;5.994;2023-03-01T00:05:31;19.00;;;15.07;;
59127;SDS011;44912;52.754;5.994;2023-03-01T00:07:57;22.42;;;16.98;;
59127;SDS011;44912;52.754;5.994;2023-03-01T00:10:23;23.13;;;17.30;;
59127;SDS011;44912;52.754;5.994;2023-03-01T00:12:48;24.13;;;18.17;;
59127;SDS011;44912;52.754;5.994;2023-03-01T00:15:14;23.40;;;18.95;;
59127;SDS011;44912;52.754;5.994;2023-03-01T00:17:39;27.77;;;19.50;;
59127;SDS011;44912;52.754;5.994;2023-03-01T00:20:05;28.42;;;19.88;;
59127;SDS011;44912;52.754;5.994;2023-03-01T00:22:35;25.25;;;19.45;;
59127;SDS011;44912;52.754;5.994;2023-03-01T00:25:01;25.13;;;18.77;;
59127;SDS011;44912;52.754;5.994;2023-03-01T00:27:27;28.80;;;19.63;;
59127;SDS011;44912;52.754;5.994;2023-03-01T00:29:53;29.65;;;19.50;;
59127;SDS011;44912;52.754;5.994;2023-03-01T00:32:18;27.92;;;19.10;;
59127;SDS011;44912;52.754;5.994;2023-03-01T00:34:44;25.48;;;19.05;;
59127;SDS011;44912;52.754;5.994;2023-03-01T00:37:22;28.35;;;19.27;;
59127;SDS011;44912;52.754;5.994;2023-03-01T00:39:48;26.95;;;18.73;;
59127;SDS011;44912;52.754;5.994;2023-03-01T00:42:14;23.65;;;18.75;;
59127;SDS011;44912;52.754;5.994;2023-03-01T00:44:40;27.58;;;20.02;;
59127;SDS011;44912;52.754;5.994;2023-03-01T00:47:06;73.32;;;19.90;;
59127;SDS011;44912;52.754;5.994;2023-03-01T00:49:32;24.00;;;17.48;;
59127;SDS011;44912;52.754;5.994;2023-03-01T00:51:57;23.38;;;18.10;;
59127;SDS011;44912;52.754;5.994;2023-03-01T00:54:23;24.95;;;18.05;;
59127;SDS011;44912;52.754;5.994;2023-03-01T00:56:49;25.80;;;18.65;;
59127;SDS011;44912;52.754;5.994;2023-03-01T00:59:14;23.15;;;17.90;;
59127;SDS011;44912;52.754;5.994;2023-03-01T01:01:40;25.55;;;18.83;;
59127;SDS011;44912;52.754;5.994;2023-03-01T01:04:07;28.88;;;19.27;;
59127;SDS011;44912;52.754;5.994;2023-03-01T01:06:35;26.52;;;18.95;;
59127;SDS011;44912;52.754;5.994;2023-03-01T01:09:03;24.92;;;18.23;;
59127;SDS011;44912;52.754;5.994;2023-03-01T01:11:30;26.40;;;19.65;;
59127;SDS011;44912;52.754;5.994;2023-03-01T01:13:56;26.45;;;19.40;;
59127;SDS011;44912;52.754;5.994;2023-03-01T01:16:23;28.70;;;20.23;;
59127;SDS011;44912;52.754;5.994;2023-03-01T01:18:51;29.15;;;20.83;;
59127;SDS011;44912;52.754;5.994;2023-03-01T01:21:18;26.63;;;18.75;;
59127;SDS011;44912;52.754;5.994;2023-03-01T01:23:46;37.78;;;16.75;;
59127;SDS011;44912;52.754;5.994;2023-03-01T01:26:16;28.38;;;19.40;;
59127;SDS011;44912;52.754;5.994;2023-03-01T01:28:49;27.90;;;18.58;;
59127;SDS011;44912;52.754;5.994;2023-03-01T01:31:15;28.00;;;21.83;;
59127;SDS011;44912;52.754;5.994;2023-03-01T01:33:41;31.75;;;22.05;;
59127;SDS011;44912;52.754;5.994;2023-03-01T01:36:08;32.15;;;22.23;;
59127;SDS011;44912;52.754;5.994;2023-03-01T01:38:34;28.67;;;21.17;;
59127;SDS011;44912;52.754;5.994;2023-03-01T01:41:00;31.83;;;22.13;;
59127;SDS011;44912;52.754;5.994;2023-03-01T01:43:30;32.08;;;22.48;;
59127;SDS011;44912;52.754;5.994;2023-03-01T01:46:02;23.92;;;17.63;;
59127;SDS011;44912;52.754;5.994;2023-03-01T01:48:50;23.98;;;18.13;;
59127;SDS011;44912;52.754;5.994;2023-03-01T01:51:23;107.90;;;18.50;;
59127;SDS011;44912;52.754;5.994;2023-03-01T01:53:53;34.03;;;21.77;;
59127;SDS011;44912;52.754;5.994;2023-03-01T01:56:24;30.95;;;23.08;;
59127;SDS011;44912;52.754;5.994;2023-03-01T01:58:51;35.00;;;22.80;;
59127;SDS011;44912;52.754;5.994;2023-03-01T02:01:17;35.10;;;24.95;;
59127;SDS011;44912;52.754;5.994;2023-03-01T02:03:43;33.65;;;24.40;;
59127;SDS011;44912;52.754;5.994;2023-03-01T02:09:14;37.00;;;24.00;;
59127;SDS011;44912;52.754;5.994;2023-03-01T02:11:43;38.40;;;24.55;;
59127;SDS011;44912;52.754;5.994;2023-03-01T02:14:09;34.10;;;23.77;;
59127;SDS011;44912;52.754;5.994;2023-03-01T02:16:35;34.53;;;22.48;;
59127;SDS011;44912;52.754;5.994;2023-03-01T02:19:01;167.90;;;19.50;;
59127;SDS011;44912;52.754;5.994;2023-03-01T02:21:48;142.45;;;21.17;;
59127;SDS011;44912;52.754;5.994;2023-03-01T02:28:05;32.38;;;24.45;;
59127;SDS011;44912;52.754;5.994;2023-03-01T02:30:21;38.83;;;25.50;;
59127;SDS011;44912;52.754;5.994;2023-03-01T02:32:49;37.85;;;25.15;;
59127;SDS011;44912;52.754;5.994;2023-03-01T02:35:16;30.75;;;22.27;;
59127;SDS011;44912;52.754;5.994;2023-03-01T02:37:44;166.57;;;21.67;;
59127;SDS011;44912;52.754;5.994;2023-03-01T02:40:18;126.82;;;20.30;;
59127;SDS011;44912;52.754;5.994;2023-03-01T02:42:50;36.55;;;19.23;;
59127;SDS011;44912;52.754;5.994;2023-03-01T02:45:19;36.20;;;23.00;;
59127;SDS011;44912;52.754;5.994;2023-03-01T02:47:45;28.15;;;20.58;;
59127;SDS011;44912;52.754;5.994;2023-03-01T02:50:57;37.60;;;21.17;;
59127;SDS011;44912;52.754;5.994;2023-03-01T02:53:05;51.17;;;19.35;;
59127;SDS011;44912;52.754;5.994;2023-03-01T02:55:41;62.33;;;19.52;;
59127;SDS011;44912;52.754;5.994;2023-03-01T02:58:07;33.53;;;19.27;;
59127;SDS011;44912;52.754;5.994;2023-03-01T03:00:37;33.95;;;18.95;;
59127;SDS011;44912;52.754;5.994;2023-03-01T03:03:10;32.90;;;18.25;;
59127;SDS011;44912;52.754;5.994;2023-03-01T03:05:40;36.83;;;17.40;;
59127;SDS011;44912;52.754;5.994;2023-03-01T03:08:05;22.48;;;16.80;;
59127;SDS011;44912;52.754;5.994;2023-03-01T03:10:33;22.50;;;17.23;;
59127;SDS011;44912;52.754;5.994;2023-03-01T03:13:03;29.25;;;20.20;;
59127;SDS011;44912;52.754;5.994;2023-03-01T03:15:32;50.67;;;22.88;;
59127;SDS011;44912;52.754;5.994;2023-03-01T03:18:02;150.15;;;26.08;;
59127;SDS011;44912;52.754;5.994;2023-03-01T03:20:28;129.45;;;27.08;;
59127;SDS011;44912;52.754;5.994;2023-03-01T03:22:55;157.45;;;26.40;;
59127;SDS011;44912;52.754;5.994;2023-03-01T03:25:23;276.77;;;29.73;;
59127;SDS011;44912;52.754;5.994;2023-03-01T03:27:50;270.75;;;27.15;;
59127;SDS011;44912;52.754;5.994;2023-03-01T03:30:22;303.17;;;26.67;;
59127;SDS011;44912;52.754;5.994;2023-03-01T03:32:49;316.83;;;29.13;;
59127;SDS011;44912;52.754;5.994;2023-03-01T03:35:22;154.48;;;24.77;;
59127;SDS011;44912;52.754;5.994;2023-03-01T03:37:49;109.38;;;19.83;;
59127;SDS011;44912;52.754;5.994;2023-03-01T03:40:36;207.13;;;24.30;;
59127;SDS011;44912;52.754;5.994;2023-03-01T03:43:04;74.63;;;21.77;;
59127;SDS011;44912;52.754;5.994;2023-03-01T03:45:31;122.25;;;22.20;;
59127;SDS011;44912;52.754;5.994;2023-03-01T03:47:58;76.72;;;20.40;;
59127;SDS011;44912;52.754;5.994;2023-03-01T03:50:24;97.22;;;20.98;;
59127;SDS011;44912;52.754;5.994;2023-03-01T03:52:51;88.35;;;21.05;;
59127;SDS011;44912;52.754;5.994;2023-03-01T03:55:16;113.45;;;22.15;;
59127;SDS011;44912;52.754;5.994;2023-03-01T03:57:44;124.47;;;21.65;;
59127;SDS011;44912;52.754;5.994;2023-03-01T04:00:17;108.60;;;19.85;;
59127;SDS011;44912;52.754;5.994;2023-03-01T04:02:44;125.72;;;21.95;;
59127;SDS011;44912;52.754;5.994;2023-03-01T04:05:12;101.22;;;21.48;;
59127;SDS011;44912;52.754;5.994;2023-03-01T04:07:39;138.80;;;22.50;;
59127;SDS011;44912;52.754;5.994;2023-03-01T04:10:06;90.95;;;20.90;;
59127;SDS011;44912;52.754;5.994;2023-03-01T04:12:37;97.40;;;22.33;;
59127;SDS011;44912;52.754;5.994;2023-03-01T04:15:03;64.03;;;19.80;;
59127;SDS011;44912;52.754;5.994;2023-03-01T04:17:41;77.47;;;18.58;;
59127;SDS011;44912;52.754;5.994;2023-03-01T04:20:09;70.10;;;17.50;;
59127;SDS011;44912;52.754;5.994;2023-03-01T04:22:38;71.13;;;17.27;;
59127;SDS011;44912;52.754;5.994;2023-03-01T04:25:05;77.07;;;18.35;;
59127;SDS011;44912;52.754;5.994;2023-03-01T04:27:35;42.67;;;17.48;;
59127;SDS011;44912;52.754;5.994;2023-03-01T04:30:02;68.45;;;17.63;;
59127;SDS011;44912;52.754;5.994;2023-03-01T04:32:28;63.53;;;16.77;;
59127;SDS011;44912;52.754;5.994;2023-03-01T04:34:54;84.85;;;17.80;;
59127;SDS011;44912;52.754;5.994;2023-03-01T04:37:19;67.25;;;17.23;;
59127;SDS011;44912;52.754;5.994;2023-03-01T04:39:45;36.67;;;15.43;;
59127;SDS011;44912;52.754;5.994;2023-03-01T04:42:12;64.35;;;17.40;;
59127;SDS011;44912;52.754;5.994;2023-03-01T04:44:38;40.08;;;15.82;;
59127;SDS011;44912;52.754;5.994;2023-03-01T04:47:04;28.67;;;15.35;;
59127;SDS011;44912;52.754;5.994;2023-03-01T04:49:30;27.15;;;15.02;;
59127;SDS011;44912;52.754;5.994;2023-03-01T04:51:56;29.58;;;14.68;;
59127;SDS011;44912;52.754;5.994;2023-03-01T04:54:27;37.83;;;15.40;;
59127;SDS011;44912;52.754;5.994;2023-03-01T04:56:53;41.28;;;15.15;;
59127;SDS011;44912;52.754;5.994;2023-03-01T04:59:19;32.30;;;15.98;;
59127;SDS011;44912;52.754;5.994;2023-03-01T05:01:47;29.15;;;16.95;;
59127;SDS011;44912;52.754;5.994;2023-03-01T05:04:13;36.78;;;18.05;;
59127;SDS011;44912;52.754;5.994;2023-03-01T05:06:39;27.10;;;17.60;;
59127;SDS011;44912;52.754;5.994;2023-03-01T05:09:05;31.98;;;17.73;;
59127;SDS011;44912;52.754;5.994;2023-03-01T05:11:31;28.95;;;17.80;;
59127;SDS011;44912;52.754;5.994;2023-03-01T05:14:00;26.40;;;16.58;;
59127;SDS011;44912;52.754;5.994;2023-03-01T05:16:27;32.40;;;17.77;;
59127;SDS011;44912;52.754;5.994;2023-03-01T05:18:52;25.98;;;17.30;;
59127;SDS011;44912;52.754;5.994;2023-03-01T05:21:20;29.77;;;17.33;;
59127;SDS011;44912;52.754;5.994;2023-03-01T05:23:46;56.38;;;19.60;;
59127;SDS011;44912;52.754;5.994;2023-03-01T05:26:12;77.72;;;19.25;;
59127;SDS011;44912;52.754;5.994;2023-03-01T05:28:38;78.70;;;19.33;;
59127;SDS011;44912;52.754;5.994;2023-03-01T05:31:05;86.70;;;19.27;;
59127;SDS011;44912;52.754;5.994;2023-03-01T05:33:38;85.78;;;17.67;;
59127;SDS011;44912;52.754;5.994;2023-03-01T05:36:04;81.05;;;18.15;;
59127;SDS011;44912;52.754;5.994;2023-03-01T05:38:32;60.88;;;19.27;;
59127;SDS011;44912;52.754;5.994;2023-03-01T05:40:58;105.70;;;20.25;;
59127;SDS011;44912;52.754;5.994;2023-03-01T05:43:23;105.30;;;19.65;;
59127;SDS011;44912;52.754;5.994;2023-03-01T05:45:49;86.47;;;18.73;;
59127;SDS011;44912;52.754;5.994;2023-03-01T05:48:14;83.38;;;18.42;;
59127;SDS011;44912;52.754;5.994;2023-03-01T05:50:41;57.33;;;17.35;;
59127;SDS011;44912;52.754;5.994;2023-03-01T05:53:10;182.32;;;21.08;;
59127;SDS011;44912;52.754;5.994;2023-03-01T05:55:38;74.18;;;16.55;;
59127;SDS011;44912;52.754;5.994;2023-03-01T05:58:05;56.75;;;17.27;;
59127;SDS011;44912;52.754;5.994;2023-03-01T06:00:33;42.70;;;17.40;;
59127;SDS011;44912;52.754;5.994;2023-03-01T06:02:59;54.72;;;17.70;;
59127;SDS011;44912;52.754;5.994;2023-03-01T06:05:26;113.10;;;21.98;;
59127;SDS011;44912;52.754;5.994;2023-03-01T06:07:52;69.15;;;20.45;;
59127;SDS011;44912;52.754;5.994;2023-03-01T06:10:19;34.88;;;20.25;;
59127;SDS011;44912;52.754;5.994;2023-03-01T06:12:46;36.95;;;19.67;;
59127;SDS011;44912;52.754;5.994;2023-03-01T06:15:13;47.03;;;18.70;;
59127;SDS011;44912;52.754;5.994;2023-03-01T06:17:40;35.75;;;16.80;;
59127;SDS011;44912;52.754;5.994;2023-03-01T06:22:41;24.58;;;17.15;;
59127;SDS011;44912;52.754;5.994;2023-03-01T06:25:08;25.77;;;17.83;;
59127;SDS011;44912;52.754;5.994;2023-03-01T06:27:34;28.95;;;17.52;;
59127;SDS011;44912;52.754;5.994;2023-03-01T06:30:00;29.98;;;17.70;;
59127;SDS011;44912;52.754;5.994;2023-03-01T06:32:26;25.20;;;17.30;;
59127;SDS011;44912;52.754;5.994;2023-03-01T06:34:51;21.92;;;16.33;;
59127;SDS011;44912;52.754;5.994;2023-03-01T06:37:17;23.08;;;16.45;;
59127;SDS011;44912;52.754;5.994;2023-03-01T06:39:42;30.25;;;18.60;;
59127;SDS011;44912;52.754;5.994;2023-03-01T06:42:08;87.40;;;19.25;;
59127;SDS011;44912;52.754;5.994;2023-03-01T06:44:37;79.30;;;19.27;;
59127;SDS011;44912;52.754;5.994;2023-03-01T06:47:03;68.13;;;18.52;;
59127;SDS011;44912;52.754;5.994;2023-03-01T06:49:28;33.05;;;17.08;;
59127;SDS011;44912;52.754;5.994;2023-03-01T06:51:55;58.47;;;18.75;;
59127;SDS011;44912;52.754;5.994;2023-03-01T06:54:21;22.80;;;17.55;;
59127;SDS011;44912;52.754;5.994;2023-03-01T06:56:49;19.90;;;16.45;;
59127;SDS011;44912;52.754;5.994;2023-03-01T06:59:15;21.33;;;15.43;;
59127;SDS011;44912;52.754;5.994;2023-03-01T07:01:41;22.52;;;15.73;;
59127;SDS011;44912;52.754;5.994;2023-03-01T07:04:07;19.40;;;15.88;;
59127;SDS011;44912;52.754;5.994;2023-03-01T07:06:32;32.97;;;16.30;;
59127;SDS011;44912;52.754;5.994;2023-03-01T07:08:58;19.02;;;15.63;;
59127;SDS011;44912;52.754;5.994;2023-03-01T07:11:23;18.95;;;15.60;;
59127;SDS011;44912;52.754;5.994;2023-03-01T07:13:49;19.90;;;15.80;;
59127;SDS011;44912;52.754;5.994;2023-03-01T07:16:15;19.10;;;15.75;;
59127;SDS011;44912;52.754;5.994;2023-03-01T07:18:40;19.13;;;15.40;;
59127;SDS011;44912;52.754;5.994;2023-03-01T07:21:07;20.88;;;15.70;;
59127;SDS011;44912;52.754;5.994;2023-03-01T07:23:33;17.52;;;14.85;;
59127;SDS011;44912;52.754;5.994;2023-03-01T07:25:59;18.95;;;14.70;;
59127;SDS011;44912;52.754;5.994;2023-03-01T07:28:25;21.58;;;16.63;;
59127;SDS011;44912;52.754;5.994;2023-03-01T07:30:52;21.00;;;16.00;;
59127;SDS011;44912;52.754;5.994;2023-03-01T07:33:18;20.05;;;15.40;;
59127;SDS011;44912;52.754;5.994;2023-03-01T07:35:43;16.90;;;13.55;;
59127;SDS011;44912;52.754;5.994;2023-03-01T07:38:09;16.88;;;14.05;;
59127;SDS011;44912;52.754;5.994;2023-03-01T07:40:34;18.35;;;14.63;;
59127;SDS011;44912;52.754;5.994;2023-03-01T07:43:00;17.00;;;14.27;;
59127;SDS011;44912;52.754;5.994;2023-03-01T07:45:26;19.95;;;16.23;;
59127;SDS011;44912;52.754;5.994;2023-03-01T07:47:52;18.35;;;15.32;;
59127;SDS011;44912;52.754;5.994;2023-03-01T07:50:19;20.00;;;15.88;;
59127;SDS011;44912;52.754;5.994;2023-03-01T07:52:45;19.38;;;15.77;;
59127;SDS011;44912;52.754;5.994;2023-03-01T07:55:11;19.48;;;15.63;;
59127;SDS011;44912;52.754;5.994;2023-03-01T07:57:38;18.13;;;15.15;;
59127;SDS011;44912;52.754;5.994;2023-03-01T08:00:04;20.50;;;16.98;;
59127;SDS011;44912;52.754;5.994;2023-03-01T08:02:30;20.50;;;16.60;;
59127;SDS011;44912;52.754;5.994;2023-03-01T08:04:56;20.90;;;16.58;;
59127;SDS011;44912;52.754;5.994;2023-03-01T08:07:21;22.95;;;17.33;;
59127;SDS011;44912;52.754;5.994;2023-03-01T08:09:47;20.83;;;16.60;;
59127;SDS011;44912;52.754;5.994;2023-03-01T08:12:12;20.90;;;17.10;;
59127;SDS011;44912;52.754;5.994;2023-03-01T08:14:38;22.52;;;17.95;;
59127;SDS011;44912;52.754;5.994;2023-03-01T08:17:04;21.13;;;17.20;;
59127;SDS011;44912;52.754;5.994;2023-03-01T08:19:29;21.30;;;17.33;;
59127;SDS011;44912;52.754;5.994;2023-03-01T08:21:55;23.08;;;18.38;;
59127;SDS011;44912;52.754;5.994;2023-03-01T08:24:23;24.85;;;19.10;;
59127;SDS011;44912;52.754;5.994;2023-03-01T08:26:48;24.30;;;18.48;;
59127;SDS011;44912;52.754;5.994;2023-03-01T08:29:14;26.55;;;19.90;;
59127;SDS011;44912;52.754;5.994;2023-03-01T08:31:40;30.85;;;21.23;;
59127;SDS011;44912;52.754;5.994;2023-03-01T08:34:10;24.27;;;19.10;;
59127;SDS011;44912;52.754;5.994;2023-03-01T08:36:38;34.17;;;25.33;;
59127;SDS011;44912;52.754;5.994;2023-03-01T08:39:06;34.67;;;24.75;;
59127;SDS011;44912;52.754;5.994;2023-03-01T08:41:33;31.92;;;23.55;;
59127;SDS011;44912;52.754;5.994;2023-03-01T08:43:59;34.58;;;24.67;;
59127;SDS011;44912;52.754;5.994;2023-03-01T08:46:28;33.38;;;24.20;;
59127;SDS011;44912;52.754;5.994;2023-03-01T08:48:55;30.73;;;23.63;;
59127;SDS011;44912;52.754;5.994;2023-03-01T08:51:21;34.83;;;24.05;;
59127;SDS011;44912;52.754;5.994;2023-03-01T08:53:47;30.88;;;22.90;;
59127;SDS011;44912;52.754;5.994;2023-03-01T08:56:13;34.15;;;24.48;;
59127;SDS011;44912;52.754;5.994;2023-03-01T08:58:39;33.70;;;23.52;;
59127;SDS011;44912;52.754;5.994;2023-03-01T09:01:08;34.03;;;23.92;;
59127;SDS011;44912;52.754;5.994;2023-03-01T09:03:35;32.15;;;24.15;;
59127;SDS011;44912;52.754;5.994;2023-03-01T09:06:01;33.63;;;24.92;;
59127;SDS011;44912;52.754;5.994;2023-03-01T09:08:28;33.63;;;24.13;;
59127;SDS011;44912;52.754;5.994;2023-03-01T09:10:54;34.25;;;24.10;;
59127;SDS011;44912;52.754;5.994;2023-03-01T09:13:19;35.88;;;24.48;;
59127;SDS011;44912;52.754;5.994;2023-03-01T09:15:45;33.33;;;24.25;;
59127;SDS011;44912;52.754;5.994;2023-03-01T09:18:10;32.30;;;22.63;;
59127;SDS011;44912;52.754;5.994;2023-03-01T09:20:36;33.40;;;23.70;;
59127;SDS011;44912;52.754;5.994;2023-03-01T09:23:01;34.30;;;25.23;;
59127;SDS011;44912;52.754;5.994;2023-03-01T09:25:27;35.95;;;25.10;;
59127;SDS011;44912;52.754;5.994;2023-03-01T09:27:53;37.30;;;25.48;;
59127;SDS011;44912;52.754;5.994;2023-03-01T09:30:19;35.17;;;25.05;;
59127;SDS011;44912;52.754;5.994;2023-03-01T09:32:45;34.55;;;24.95;;
59127;SDS011;44912;52.754;5.994;2023-03-01T09:35:11;38.22;;;25.35;;
59127;SDS011;44912;52.754;5.994;2023-03-01T09:37:37;37.17;;;26.30;;
59127;SDS011;44912;52.754;5.994;2023-03-01T09:40:04;35.58;;;25.70;;
59127;SDS011;44912;52.754;5.994;2023-03-01T09:42:32;34.47;;;24.63;;
59127;SDS011;44912;52.754;5.994;2023-03-01T09:45:23;35.60;;;24.42;;
59127;SDS011;44912;52.754;5.994;2023-03-01T09:47:54;35.58;;;25.15;;
59127;SDS011;44912;52.754;5.994;2023-03-01T09:50:21;34.95;;;23.55;;
59127;SDS011;44912;52.754;5.994;2023-03-01T09:52:50;32.38;;;23.73;;
59127;SDS011;44912;52.754;5.994;2023-03-01T09:55:44;31.98;;;22.73;;
59127;SDS011;44912;52.754;5.994;2023-03-01T10:00:52;27.42;;;20.42;;
59127;SDS011;44912;52.754;5.994;2023-03-01T10:03:23;28.58;;;20.73;;
59127;SDS011;44912;52.754;5.994;2023-03-01T10:05:59;28.48;;;20.80;;
59127;SDS011;44912;52.754;5.994;2023-03-01T10:08:36;26.27;;;19.05;;
59127;SDS011;44912;52.754;5.994;2023-03-01T10:11:04;23.42;;;17.13;;
59127;SDS011;44912;52.754;5.994;2023-03-01T10:19:03;23.75;;;17.02;;
59127;SDS011;44912;52.754;5.994;2023-03-01T10:21:30;23.75;;;16.58;;
59127;SDS011;44912;52.754;5.994;2023-03-01T10:24:08;23.50;;;17.05;;
59127;SDS011;44912;52.754;5.994;2023-03-01T10:31:39;23.02;;;17.13;;
59127;SDS011;44912;52.754;5.994;2023-03-01T10:34:17;24.77;;;18.48;;
59127;SDS011;44912;52.754;5.994;2023-03-01T10:37:04;27.38;;;18.23;;
59127;SDS011;44912;52.754;5.994;2023-03-01T10:39:53;25.38;;;18.52;;
59127;SDS011;44912;52.754;5.994;2023-03-01T10:42:38;23.83;;;17.35;;
59127;SDS011;44912;52.754;5.994;2023-03-01T10:45:16;26.00;;;18.30;;
59127;SDS011;44912;52.754;5.994;2023-03-01T10:50:45;23.05;;;16.88;;
59127;SDS011;44912;52.754;5.994;2023-03-01T10:53:20;21.60;;;15.88;;
59127;SDS011;44912;52.754;5.994;2023-03-01T10:55:59;23.83;;;17.08;;
59127;SDS011;44912;52.754;5.994;2023-03-01T10:58:33;22.90;;;17.25;;
59127;SDS011;44912;52.754;5.994;2023-03-01T11:01:03;23.38;;;17.75;;
59127;SDS011;44912;52.754;5.994;2023-03-01T11:03:37;22.85;;;16.67;;
59127;SDS011;44912;52.754;5.994;2023-03-01T11:11:13;20.08;;;12.60;;
59127;SDS011;44912;52.754;5.994;2023-03-01T11:13:50;18.25;;;13.20;;
59127;SDS011;44912;52.754;5.994;2023-03-01T11:18:56;18.38;;;12.25;;
59127;SDS011;44912;52.754;5.994;2023-03-01T11:21:34;18.38;;;12.60;;
59127;SDS011;44912;52.754;5.994;2023-03-01T11:24:08;16.15;;;11.43;;
59127;SDS011;44912;52.754;5.994;2023-03-01T11:26:37;15.07;;;11.38;;
59127;SDS011;44912;52.754;5.994;2023-03-01T11:29:07;15.05;;;11.30;;
59127;SDS011;44912;52.754;5.994;2023-03-01T11:31:42;18.02;;;11.70;;
59127;SDS011;44912;52.754;5.994;2023-03-01T11:34:14;17.10;;;10.95;;
59127;SDS011;44912;52.754;5.994;2023-03-01T11:36:52;16.52;;;11.30;;
59127;SDS011;44912;52.754;5.994;2023-03-01T11:42:17;15.05;;;10.07;;
59127;SDS011;44912;52.754;5.994;2023-03-01T11:44:46;14.13;;;9.60;;
59127;SDS011;44912;52.754;5.994;2023-03-01T11:58:20;15.50;;;9.57;;
59127;SDS011;44912;52.754;5.994;2023-03-01T12:03:53;14.18;;;8.88;;
59127;SDS011;44912;52.754;5.994;2023-03-01T12:06:41;13.68;;;9.02;;
59127;SDS011;44912;52.754;5.994;2023-03-01T12:09:26;14.20;;;8.20;;
59127;SDS011;44912;52.754;5.994;2023-03-01T12:22:57;13.85;;;8.70;;
59127;SDS011;44912;52.754;5.994;2023-03-01T12:28:39;13.88;;;9.00;;
59127;SDS011;44912;52.754;5.994;2023-03-01T12:31:31;13.55;;;9.05;;
59127;SDS011;44912;52.754;5.994;2023-03-01T12:39:29;14.07;;;8.85;;
59127;SDS011;44912;52.754;5.994;2023-03-01T12:42:02;14.30;;;9.30;;
59127;SDS011;44912;52.754;5.994;2023-03-01T12:44:42;12.82;;;8.85;;
59127;SDS011;44912;52.754;5.994;2023-03-01T12:50:02;15.15;;;10.55;;
59127;SDS011;44912;52.754;5.994;2023-03-01T12:52:41;13.65;;;9.18;;
59127;SDS011;44912;52.754;5.994;2023-03-01T12:58:04;12.65;;;8.90;;
59127;SDS011;44912;52.754;5.994;2023-03-01T13:05:53;13.60;;;9.70;;
59127;SDS011;44912;52.754;5.994;2023-03-01T13:08:44;15.82;;;10.32;;
59127;SDS011;44912;52.754;5.994;2023-03-01T13:11:20;15.52;;;10.18;;
59127;SDS011;44912;52.754;5.994;2023-03-01T13:13:46;14.90;;;10.70;;
59127;SDS011;44912;52.754;5.994;2023-03-01T13:19:08;15.45;;;10.10;;
59127;SDS011;44912;52.754;5.994;2023-03-01T13:21:40;15.27;;;9.80;;
59127;SDS011;44912;52.754;5.994;2023-03-01T13:24:24;14.05;;;9.38;;
59127;SDS011;44912;52.754;5.994;2023-03-01T13:32:26;14.40;;;9.80;;
59127;SDS011;44912;52.754;5.994;2023-03-01T13:35:00;16.13;;;9.43;;
59127;SDS011;44912;52.754;5.994;2023-03-01T13:37:36;16.08;;;10.48;;
59127;SDS011;44912;52.754;5.994;2023-03-01T13:40:04;16.10;;;9.68;;
59127;SDS011;44912;52.754;5.994;2023-03-01T13:48:22;15.63;;;10.05;;
59127;SDS011;44912;52.754;5.994;2023-03-01T13:50:51;17.25;;;10.75;;
59127;SDS011;44912;52.754;5.994;2023-03-01T13:53:23;12.50;;;9.05;;
59127;SDS011;44912;52.754;5.994;2023-03-01T13:55:51;16.65;;;10.35;;
59127;SDS011;44912;52.754;5.994;2023-03-01T13:58:23;15.00;;;9.95;;
59127;SDS011;44912;52.754;5.994;2023-03-01T14:00:58;15.15;;;10.90;;
59127;SDS011;44912;52.754;5.994;2023-03-01T14:03:29;16.75;;;10.88;;
59127;SDS011;44912;52.754;5.994;2023-03-01T14:16:19;16.13;;;10.60;;
59127;SDS011;44912;52.754;5.994;2023-03-01T14:19:08;14.60;;;10.32;;
59127;SDS011;44912;52.754;5.994;2023-03-01T14:21:36;13.63;;;9.38;;
59127;SDS011;44912;52.754;5.994;2023-03-01T14:24:02;14.02;;;9.65;;
59127;SDS011;44912;52.754;5.994;2023-03-01T14:26:28;14.95;;;10.05;;
59127;SDS011;44912;52.754;5.994;2023-03-01T14:28:56;13.25;;;9.38;;
59127;SDS011;44912;52.754;5.994;2023-03-01T14:31:30;14.25;;;8.90;;
59127;SDS011;44912;52.754;5.994;2023-03-01T14:34:00;14.65;;;10.02;;
59127;SDS011;44912;52.754;5.994;2023-03-01T14:36:27;12.23;;;7.60;;
59127;SDS011;44912;52.754;5.994;2023-03-01T14:38:54;12.35;;;7.97;;
59127;SDS011;44912;52.754;5.994;2023-03-01T14:41:20;13.40;;;7.65;;
59127;SDS011;44912;52.754;5.994;2023-03-01T14:43:53;13.32;;;8.65;;
59127;SDS011;44912;52.754;5.994;2023-03-01T14:46:31;13.80;;;8.68;;
59127;SDS011;44912;52.754;5.994;2023-03-01T14:49:09;13.02;;;8.85;;
59127;SDS011;44912;52.754;5.994;2023-03-01T14:51:39;16.70;;;11.40;;
59127;SDS011;44912;52.754;5.994;2023-03-01T14:54:41;15.38;;;11.27;;
59127;SDS011;44912;52.754;5.994;2023-03-01T14:57:13;14.63;;;9.90;;
59127;SDS011;44912;52.754;5.994;2023-03-01T14:59:40;15.57;;;10.63;;
59127;SDS011;44912;52.754;5.994;2023-03-01T15:02:08;14.30;;;9.10;;
59127;SDS011;44912;52.754;5.994;2023-03-01T15:04:48;13.98;;;9.48;;
59127;SDS011;44912;52.754;5.994;2023-03-01T15:07:16;13.65;;;8.77;;
59127;SDS011;44912;52.754;5.994;2023-03-01T15:09:42;13.20;;;9.18;;
59127;SDS011;44912;52.754;5.994;2023-03-01T15:14:50;16.42;;;10.10;;
59127;SDS011;44912;52.754;5.994;2023-03-01T15:20:00;14.10;;;10.10;;
59127;SDS011;44912;52.754;5.994;2023-03-01T15:22:30;14.52;;;10.57;;
59127;SDS011;44912;52.754;5.994;2023-03-01T15:24:56;16.85;;;11.70;;
59127;SDS011;44912;52.754;5.994;2023-03-01T15:27:22;18.02;;;12.18;;
59127;SDS011;44912;52.754;5.994;2023-03-01T15:29:51;15.43;;;10.20;;
59127;SDS011;44912;52.754;5.994;2023-03-01T15:32:30;15.23;;;11.00;;
59127;SDS011;44912;52.754;5.994;2023-03-01T15:34:58;16.58;;;11.45;;
59127;SDS011;44912;52.754;5.994;2023-03-01T15:40:17;15.60;;;10.93;;
59127;SDS011;44912;52.754;5.994;2023-03-01T15:42:48;16.15;;;11.23;;
59127;SDS011;44912;52.754;5.994;2023-03-01T15:47:49;17.95;;;12.63;;
59127;SDS011;44912;52.754;5.994;2023-03-01T15:50:21;16.67;;;11.68;;
59127;SDS011;44912;52.754;5.994;2023-03-01T15:52:49;20.40;;;11.45;;
59127;SDS011;44912;52.754;5.994;2023-03-01T15:55:19;17.15;;;10.60;;
59127;SDS011;44912;52.754;5.994;2023-03-01T15:57:47;20.48;;;11.90;;
59127;SDS011;44912;52.754;5.994;2023-03-01T16:00:14;17.83;;;11.07;;
59127;SDS011;44912;52.754;5.994;2023-03-01T16:02:41;15.63;;;11.18;;
59127;SDS011;44912;52.754;5.994;2023-03-01T16:05:41;14.18;;;9.93;;
59127;SDS011;44912;52.754;5.994;2023-03-01T16:08:01;15.18;;;9.85;;
59127;SDS011;44912;52.754;5.994;2023-03-01T16:10:27;14.02;;;9.40;;
59127;SDS011;44912;52.754;5.994;2023-03-01T16:12:53;14.90;;;9.63;;
59127;SDS011;44912;52.754;5.994;2023-03-01T16:15:25;12.82;;;8.82;;
59127;SDS011;44912;52.754;5.994;2023-03-01T16:17:52;13.75;;;8.95;;
59127;SDS011;44912;52.754;5.994;2023-03-01T16:20:18;13.27;;;8.10;;
59127;SDS011;44912;52.754;5.994;2023-03-01T16:22:44;14.15;;;9.35;;
59127;SDS011;44912;52.754;5.994;2023-03-01T16:25:11;14.68;;;9.80;;
59127;SDS011;44912;52.754;5.994;2023-03-01T16:27:42;14.20;;;8.98;;
59127;SDS011;44912;52.754;5.994;2023-03-01T16:30:09;14.13;;;9.00;;